Latest Coastal Weather Observations for Rosslyn Bay Harbour

IDQ60701

Issued at 6:21 am EST Monday 23 January 2017 (issued every 10 minutes, with the page automatically refreshed every 10 minutes)

About coastal observations | Map of coastal stations | Coastal observations for QLD | Marine services | Other Formats
Station Details ID: 033208 Name: ROSSLYN BAY NTC AWS Lat: -23.16 Lon: 150.79 Height: 0.0 m
Data from the previous 72 hours. | See also: Recent months for locations in Queensland
Date/Time
EST
Temp
°C
Wind Pressure Rain since
9am
mm
Weather Cloud Vis
km
Sea
Height
m
Swell
Dir  Spd
kts
Gust
kts
hPa Trend Height
m
Period
s
Dir
21/03:30pm 29.1 NNE 11 15 1005.7 - - - - - - - - -
21/03:00pm 29.0 NE 10 15 1006.0 - - - - - - - - -
21/02:30pm 29.1 NNE 9 14 1006.3 - - - - - - - - -
21/02:00pm 29.3 NE 9 15 1006.5 - - - - - - - - -
21/01:30pm 28.7 NE 12 15 1006.8 - - - - - - - - -
21/01:00pm 28.6 NE 12 15 1007.1 - - - - - - - - -
21/12:30pm 28.9 NE 11 13 1007.3 - - - - - - - - -
21/12:00pm 30.3 ENE 4 9 1007.6 - - - - - - - - -
21/11:30am 28.9 ENE 8 11 1008.1 - - - - - - - - -
21/11:00am 28.4 NE 7 10 1008.4 - - - - - - - - -
21/10:30am 28.0 NE 7 10 1008.8 - - - - - - - - -
21/10:00am 29.8 N 5 8 1008.9 - - - - - - - - -
21/09:30am 28.9 NW 5 8 1009.1 - - - - - - - - -
21/09:00am 27.9 WNW 4 9 1009.1 - - - - - - - - -
21/08:30am 27.2 NW 6 9 1008.8 - - - - - - - - -
21/08:00am 26.4 NW 4 6 1009.0 - - - - - - - - -
21/07:30am 25.7 NNW 2 4 1009.0 - - - - - - - - -
21/07:00am 25.2 SW 4 7 1009.3 - - - - - - - - -
21/06:30am 24.0 WSW 4 5 1008.7 - - - - - - - - -
21/06:00am 24.2 NW 4 6 1008.1 - - - - - - - - -
21/05:30am 24.3 W 2 4 1008.0 - - - - - - - - -
21/05:00am 24.1 SW 2 3 1007.6 - - - - - - - - -
21/04:30am 24.4 W 1 4 1006.9 - - - - - - - - -
21/04:00am 24.1 SSW 2 4 1006.9 - - - - - - - - -
21/03:30am 24.9 WNW 3 6 1006.8 - - - - - - - - -
21/03:00am 25.2 N 5 7 1006.7 - - - - - - - - -
21/02:30am 25.2 NNW 5 7 1006.7 - - - - - - - - -
21/02:00am 26.2 N 8 11 1006.9 - - - - - - - - -
21/01:30am 26.2 N 6 8 1007.1 - - - - - - - - -
21/01:00am 26.3 N 5 8 1007.5 - - - - - - - - -
21/12:30am 26.2 N 6 9 1007.6 - - - - - - - - -
21/12:00am 26.2 NNW 4 6 1008.1 - - - - - - - - -
 
Date/Time
EST
Temp
°C
Wind Pressure Rain since
9am
mm
Weather Cloud Vis
km
Sea
Height
m
Swell
Dir  Spd
kts
Gust
kts
hPa Trend Height
m
Period
s
Dir
20/11:30pm 26.3 N 4 7 1008.2 - - - - - - - - -
20/11:00pm 26.3 N 5 7 1008.2 - - - - - - - - -
20/10:30pm 26.4 N 5 8 1008.4 - - - - - - - - -
20/10:00pm 26.5 NNW 9 11 1008.4 - - - - - - - - -
20/09:30pm 27.0 N 10 15 1008.2 - - - - - - - - -
20/09:00pm 27.3 N 8 12 1008.1 - - - - - - - - -
20/08:30pm 27.8 N 10 15 1007.9 - - - - - - - - -
20/08:00pm 28.2 NNE 13 19 1007.7 - - - - - - - - -
20/07:30pm 28.3 NNE 13 18 1007.1 - - - - - - - - -
20/07:00pm 28.4 NNE 15 20 1006.5 - - - - - - - - -
20/06:30pm 28.5 NNE 15 21 1006.0 - - - - - - - - -
20/06:00pm 28.4 NNE 14 21 1006.0 - - - - - - - - -
20/05:30pm 28.5 NNE 15 20 1005.5 - - - - - - - - -
20/05:00pm 28.6 NNE 13 19 1005.4 - - - - - - - - -
20/04:30pm 28.6 NNE 13 19 1005.5 - - - - - - - - -
20/04:00pm 28.7 NNE 11 17 1005.8 - - - - - - - - -
20/03:30pm 28.8 NE 11 17 1006.1 - - - - - - - - -
20/03:00pm 28.8 NNE 12 16 1006.7 - - - - - - - - -
20/02:30pm 29.0 NE 9 13 1006.9 - - - - - - - - -
20/02:00pm 28.8 NNE 9 14 1007.2 - - - - - - - - -
20/01:30pm 28.7 NE 10 15 1007.4 - - - - - - - - -
20/01:00pm 28.7 NE 10 15 1008.0 - - - - - - - - -
20/12:30pm 28.7 NE 10 13 1008.4 - - - - - - - - -
20/12:00pm 28.5 NE 9 13 1008.8 - - - - - - - - -
20/11:30am 28.4 NE 9 13 1009.1 - - - - - - - - -
20/11:00am 28.3 NE 11 13 1009.3 - - - - - - - - -
20/10:30am 28.6 NE 7 12 1009.7 - - - - - - - - -
20/10:00am 28.3 NE 6 9 1009.9 - - - - - - - - -
20/09:30am 28.3 NNE 5 8 1010.1 - - - - - - - - -
20/09:00am 28.3 NNE 5 7 1010.0 - - - - - - - - -
20/08:30am 28.4 N 5 8 1010.1 - - - - - - - - -
20/08:00am 27.9 N 6 9 1010.1 - - - - - - - - -
20/07:30am 27.5 NNW 7 9 1010.0 - - - - - - - - -
20/07:00am 27.2 NNW 7 10 1009.7 - - - - - - - - -
20/06:30am 27.1 N 5 8 1009.3 - - - - - - - - -

Other Formats:

Comma delimited format used in spreadsheet applications
http://www.bom.gov.au/fwo/IDQ60701/IDQ60701.95298.axf

JavaScript Object Notation format (JSON) in row-major order
http://www.bom.gov.au/fwo/IDQ60701/IDQ60701.95298.json